Accueil
METAR-TAF:

METAR-TAF

Aéroports :

Buckland, Alaska, États-Unis

latitude: 65-58-56N, longitude: 161-09-07W, altitude: 7 m

Observation

Le bulletin a été fait il y a 48 minutes, à 22:56 UTC
Vent 3 kt de sud/sud-est
Température -19°C
Humidité 84%
Pression 1007 hPa
Visibilité: 14.5 km
Ciel couvert à une hauteur de 3700 ft
neige faible

METAR: PABL 222256Z AUTO 16003KT 9SM -SN OVC037 M19/M21 A2975 RMK AO2 SNE13B37 SLP077 P0000 T11891211 FZRANO

Heure: 14:44 (23:44 UTC)


TAF: absent

Observations et prévisions météorologiques de plus de 4000 aéroports (messages METAR et TAF).

Les stations disponibles sont représentées par des disques jaunes et rouges sur la carte.

Passer la souris dessus pour voir le nom de la station.

Cliquer dessus pour voir les observations et prévisions météorologiques.

Pour changer de carte: cliquez sur les boutons verts avec une croix noire pour zoomer, sur le bouton vert avec un tiret pour effectuer un zoom arrière, ou sur les flèches vertes pour les cartes adjacentes.


METAR-TAF: